sensor_id;sensor_type;location;lat;lon;timestamp;pressure;altitude;pressure_sealevel;temperature;humidity
29215;BME280;16252;49.816;7.964;2023-07-29T00:00:19;99407.66;;;21.85;67.82
29215;BME280;16252;49.816;7.964;2023-07-29T00:02:45;99370.28;;;21.59;67.96
29215;BME280;16252;49.816;7.964;2023-07-29T00:05:11;99336.91;;;21.37;67.80
29215;BME280;16252;49.816;7.964;2023-07-29T00:07:36;99303.75;;;21.20;68.02
29215;BME280;16252;49.816;7.964;2023-07-29T00:10:02;99420.03;;;21.95;67.95
29215;BME280;16252;49.816;7.964;2023-07-29T00:12:28;99340.31;;;21.46;68.16
29215;BME280;16252;49.816;7.964;2023-07-29T00:14:54;99329.13;;;21.34;68.47
29215;BME280;16252;49.816;7.964;2023-07-29T00:17:19;99328.50;;;21.32;68.31
29215;BME280;16252;49.816;7.964;2023-07-29T00:19:45;99402.81;;;21.88;68.41
29215;BME280;16252;49.816;7.964;2023-07-29T00:22:11;99407.47;;;21.94;68.09
29215;BME280;16252;49.816;7.964;2023-07-29T00:24:36;99373.69;;;21.68;68.56
29215;BME280;16252;49.816;7.964;2023-07-29T00:27:01;99377.69;;;21.79;68.27
29215;BME280;16252;49.816;7.964;2023-07-29T00:29:26;99406.41;;;21.95;68.38
29215;BME280;16252;49.816;7.964;2023-07-29T00:31:52;99331.06;;;21.40;68.38
29215;BME280;16252;49.816;7.964;2023-07-29T00:34:17;99329.19;;;21.41;68.40
29215;BME280;16252;49.816;7.964;2023-07-29T00:36:46;99411.44;;;21.91;68.43
29215;BME280;16252;49.816;7.964;2023-07-29T00:39:12;99399.88;;;21.82;68.46
29215;BME280;16252;49.816;7.964;2023-07-29T00:41:37;99386.03;;;21.77;68.48
29215;BME280;16252;49.816;7.964;2023-07-29T00:44:03;99276.38;;;21.22;68.27
29215;BME280;16252;49.816;7.964;2023-07-29T00:46:28;99335.31;;;21.56;68.42
29215;BME280;16252;49.816;7.964;2023-07-29T00:48:54;99327.16;;;21.56;68.22
29215;BME280;16252;49.816;7.964;2023-07-29T00:51:20;99305.16;;;21.51;68.39
29215;BME280;16252;49.816;7.964;2023-07-29T00:53:45;99359.69;;;21.84;68.41
29215;BME280;16252;49.816;7.964;2023-07-29T00:56:11;99373.09;;;21.86;68.36
29215;BME280;16252;49.816;7.964;2023-07-29T00:58:37;99344.94;;;21.59;68.27
29215;BME280;16252;49.816;7.964;2023-07-29T01:01:02;99326.91;;;21.51;68.28
29215;BME280;16252;49.816;7.964;2023-07-29T01:03:27;99260.19;;;21.07;68.64
29215;BME280;16252;49.816;7.964;2023-07-29T01:06:17;99347.69;;;21.72;68.30
29215;BME280;16252;49.816;7.964;2023-07-29T01:08:55;99373.50;;;21.83;68.40
29215;BME280;16252;49.816;7.964;2023-07-29T01:14:15;99299.19;;;21.28;68.32
29215;BME280;16252;49.816;7.964;2023-07-29T01:16:47;99278.84;;;21.17;68.75
29215;BME280;16252;49.816;7.964;2023-07-29T01:22:37;99353.38;;;21.71;69.03
29215;BME280;16252;49.816;7.964;2023-07-29T01:25:03;99369.47;;;21.72;68.82
29215;BME280;16252;49.816;7.964;2023-07-29T01:27:29;99242.78;;;20.95;68.96
29215;BME280;16252;49.816;7.964;2023-07-29T01:29:55;99267.72;;;21.05;68.96
29215;BME280;16252;49.816;7.964;2023-07-29T01:35:05;99216.59;;;20.87;69.39
29215;BME280;16252;49.816;7.964;2023-07-29T01:37:37;99301.72;;;21.36;69.23
29215;BME280;16252;49.816;7.964;2023-07-29T01:40:04;99289.56;;;21.32;69.26
29215;BME280;16252;49.816;7.964;2023-07-29T01:42:30;99221.63;;;20.90;69.16
29215;BME280;16252;49.816;7.964;2023-07-29T01:44:56;99289.97;;;21.29;69.01
29215;BME280;16252;49.816;7.964;2023-07-29T01:47:21;99347.44;;;21.47;69.06
29215;BME280;16252;49.816;7.964;2023-07-29T01:49:47;99247.81;;;20.98;69.71
29215;BME280;16252;49.816;7.964;2023-07-29T01:52:13;99278.22;;;21.21;70.08
29215;BME280;16252;49.816;7.964;2023-07-29T01:54:38;99254.94;;;21.06;70.49
29215;BME280;16252;49.816;7.964;2023-07-29T01:57:03;99286.41;;;21.28;70.84
29215;BME280;16252;49.816;7.964;2023-07-29T01:59:29;99318.13;;;21.49;70.41
29215;BME280;16252;49.816;7.964;2023-07-29T02:01:54;99352.31;;;21.65;71.07
29215;BME280;16252;49.816;7.964;2023-07-29T02:04:19;99333.84;;;21.47;70.56
29215;BME280;16252;49.816;7.964;2023-07-29T02:06:45;99343.91;;;21.53;70.92
29215;BME280;16252;49.816;7.964;2023-07-29T02:09:10;99326.84;;;21.38;70.61
29215;BME280;16252;49.816;7.964;2023-07-29T02:11:35;99357.09;;;21.50;70.92
29215;BME280;16252;49.816;7.964;2023-07-29T02:14:00;99319.72;;;21.30;71.69
29215;BME280;16252;49.816;7.964;2023-07-29T02:16:26;99322.84;;;21.34;71.63
29215;BME280;16252;49.816;7.964;2023-07-29T02:18:51;99323.50;;;21.36;71.39
29215;BME280;16252;49.816;7.964;2023-07-29T02:21:16;99335.88;;;21.38;71.45
29215;BME280;16252;49.816;7.964;2023-07-29T02:23:42;99269.78;;;20.96;71.50
29215;BME280;16252;49.816;7.964;2023-07-29T02:26:07;99335.22;;;21.36;71.67
29215;BME280;16252;49.816;7.964;2023-07-29T02:28:32;99335.81;;;21.32;71.61
29215;BME280;16252;49.816;7.964;2023-07-29T02:31:17;99331.28;;;21.39;71.97
29215;BME280;16252;49.816;7.964;2023-07-29T02:33:43;99327.41;;;21.27;72.03
29215;BME280;16252;49.816;7.964;2023-07-29T02:36:09;99327.81;;;21.24;72.80
29215;BME280;16252;49.816;7.964;2023-07-29T02:38:34;99306.22;;;21.09;71.89
29215;BME280;16252;49.816;7.964;2023-07-29T02:41:00;99319.25;;;21.20;72.36
29215;BME280;16252;49.816;7.964;2023-07-29T02:43:25;99309.16;;;21.14;72.66
29215;BME280;16252;49.816;7.964;2023-07-29T02:45:50;99308.09;;;21.08;72.51
29215;BME280;16252;49.816;7.964;2023-07-29T02:48:15;99224.56;;;20.54;72.77
29215;BME280;16252;49.816;7.964;2023-07-29T02:50:41;99317.31;;;21.07;72.33
29215;BME280;16252;49.816;7.964;2023-07-29T02:53:06;99243.22;;;20.57;72.78
29215;BME280;16252;49.816;7.964;2023-07-29T02:55:31;99316.03;;;21.03;73.21
29215;BME280;16252;49.816;7.964;2023-07-29T02:57:57;99252.44;;;20.63;73.51
29215;BME280;16252;49.816;7.964;2023-07-29T03:00:22;99319.38;;;21.05;73.13
29215;BME280;16252;49.816;7.964;2023-07-29T03:02:47;99309.56;;;21.04;73.28
29215;BME280;16252;49.816;7.964;2023-07-29T03:05:13;99300.06;;;20.93;73.27
29215;BME280;16252;49.816;7.964;2023-07-29T03:07:38;99300.44;;;20.84;73.52
29215;BME280;16252;49.816;7.964;2023-07-29T03:10:04;99219.91;;;20.41;73.76
29215;BME280;16252;49.816;7.964;2023-07-29T03:12:29;99248.56;;;20.50;73.77
29215;BME280;16252;49.816;7.964;2023-07-29T03:14:54;99315.59;;;20.99;73.58
29215;BME280;16252;49.816;7.964;2023-07-29T03:17:21;99314.13;;;20.97;73.61
29215;BME280;16252;49.816;7.964;2023-07-29T03:19:46;99246.50;;;20.52;73.62
29215;BME280;16252;49.816;7.964;2023-07-29T03:22:11;99269.22;;;20.73;73.71
29215;BME280;16252;49.816;7.964;2023-07-29T03:24:37;99216.94;;;20.36;73.37
29215;BME280;16252;49.816;7.964;2023-07-29T03:27:02;99273.63;;;20.74;73.59
29215;BME280;16252;49.816;7.964;2023-07-29T03:29:27;99297.13;;;20.88;73.18
29215;BME280;16252;49.816;7.964;2023-07-29T03:31:53;99225.56;;;20.46;73.60
29215;BME280;16252;49.816;7.964;2023-07-29T03:34:18;99277.19;;;20.74;73.85
29215;BME280;16252;49.816;7.964;2023-07-29T03:36:43;99288.06;;;20.81;73.63
29215;BME280;16252;49.816;7.964;2023-07-29T03:39:11;99251.78;;;20.61;73.23
29215;BME280;16252;49.816;7.964;2023-07-29T03:41:36;99269.03;;;20.74;73.02
29215;BME280;16252;49.816;7.964;2023-07-29T03:44:01;99292.03;;;20.78;72.84
29215;BME280;16252;49.816;7.964;2023-07-29T03:46:26;99288.25;;;20.73;73.22
29215;BME280;16252;49.816;7.964;2023-07-29T03:48:52;99282.56;;;20.68;73.23
29215;BME280;16252;49.816;7.964;2023-07-29T03:51:17;99250.44;;;20.50;72.77
29215;BME280;16252;49.816;7.964;2023-07-29T03:53:43;99270.81;;;20.61;73.07
29215;BME280;16252;49.816;7.964;2023-07-29T03:56:08;99266.63;;;20.58;74.04
29215;BME280;16252;49.816;7.964;2023-07-29T03:58:33;99284.22;;;20.62;73.83
29215;BME280;16252;49.816;7.964;2023-07-29T04:00:58;99172.31;;;19.89;74.13
29215;BME280;16252;49.816;7.964;2023-07-29T04:03:24;99180.97;;;19.99;74.01
29215;BME280;16252;49.816;7.964;2023-07-29T04:05:49;99274.41;;;20.61;74.41
29215;BME280;16252;49.816;7.964;2023-07-29T04:08:14;99163.63;;;20.00;74.16
29215;BME280;16252;49.816;7.964;2023-07-29T04:10:40;99232.19;;;20.37;74.16
29215;BME280;16252;49.816;7.964;2023-07-29T04:13:05;99261.13;;;20.51;73.99
29215;BME280;16252;49.816;7.964;2023-07-29T04:15:30;99238.50;;;20.44;73.96
29215;BME280;16252;49.816;7.964;2023-07-29T04:17:55;99272.66;;;20.53;73.85
29215;BME280;16252;49.816;7.964;2023-07-29T04:20:21;99278.28;;;20.52;73.65
29215;BME280;16252;49.816;7.964;2023-07-29T04:22:46;99256.44;;;20.39;73.90
29215;BME280;16252;49.816;7.964;2023-07-29T04:25:11;99264.19;;;20.42;73.55
29215;BME280;16252;49.816;7.964;2023-07-29T04:27:38;99284.75;;;20.51;74.12
29215;BME280;16252;49.816;7.964;2023-07-29T04:30:03;99246.94;;;20.28;73.88
29215;BME280;16252;49.816;7.964;2023-07-29T04:32:29;99250.53;;;20.28;73.86
29215;BME280;16252;49.816;7.964;2023-07-29T04:34:54;99281.34;;;20.42;73.96
29215;BME280;16252;49.816;7.964;2023-07-29T04:37:19;99274.84;;;20.43;74.09
29215;BME280;16252;49.816;7.964;2023-07-29T04:39:46;99261.19;;;20.30;74.04
29215;BME280;16252;49.816;7.964;2023-07-29T04:42:11;99269.81;;;20.40;74.67
29215;BME280;16252;49.816;7.964;2023-07-29T04:44:37;99271.50;;;20.41;74.29
29215;BME280;16252;49.816;7.964;2023-07-29T04:47:02;99259.16;;;20.39;74.29
29215;BME280;16252;49.816;7.964;2023-07-29T04:49:27;99273.19;;;20.42;74.91
29215;BME280;16252;49.816;7.964;2023-07-29T04:51:53;99269.63;;;20.42;75.21
29215;BME280;16252;49.816;7.964;2023-07-29T04:54:18;99248.66;;;20.29;75.46
29215;BME280;16252;49.816;7.964;2023-07-29T04:56:45;99261.66;;;20.40;75.39
29215;BME280;16252;49.816;7.964;2023-07-29T04:59:11;99277.06;;;20.54;75.71
29215;BME280;16252;49.816;7.964;2023-07-29T05:01:38;99278.78;;;20.62;75.61
29215;BME280;16252;49.816;7.964;2023-07-29T05:04:03;99274.78;;;20.58;75.68
29215;BME280;16252;49.816;7.964;2023-07-29T05:06:28;99259.91;;;20.54;75.94
29215;BME280;16252;49.816;7.964;2023-07-29T05:08:54;99280.69;;;20.68;75.84
29215;BME280;16252;49.816;7.964;2023-07-29T05:11:19;99285.94;;;20.70;75.71
29215;BME280;16252;49.816;7.964;2023-07-29T05:13:44;99295.63;;;20.79;75.76
29215;BME280;16252;49.816;7.964;2023-07-29T05:16:10;99280.72;;;20.75;75.59
29215;BME280;16252;49.816;7.964;2023-07-29T05:18:35;99271.28;;;20.64;75.87
29215;BME280;16252;49.816;7.964;2023-07-29T05:21:00;99296.44;;;20.80;75.77
29215;BME280;16252;49.816;7.964;2023-07-29T05:23:25;99285.34;;;20.74;75.97
29215;BME280;16252;49.816;7.964;2023-07-29T05:25:51;99291.19;;;20.78;75.80
29215;BME280;16252;49.816;7.964;2023-07-29T05:28:16;99292.28;;;20.84;75.62
29215;BME280;16252;49.816;7.964;2023-07-29T05:30:43;99312.63;;;20.94;75.74
29215;BME280;16252;49.816;7.964;2023-07-29T05:33:08;99304.47;;;20.94;75.74
29215;BME280;16252;49.816;7.964;2023-07-29T05:35:34;99273.66;;;20.81;75.53
29215;BME280;16252;49.816;7.964;2023-07-29T05:37:59;99293.78;;;20.93;75.59
29215;BME280;16252;49.816;7.964;2023-07-29T05:40:24;99303.25;;;20.97;75.97
29215;BME280;16252;49.816;7.964;2023-07-29T05:42:49;99296.09;;;20.96;75.35
29215;BME280;16252;49.816;7.964;2023-07-29T05:45:15;99299.88;;;20.95;75.13
29215;BME280;16252;49.816;7.964;2023-07-29T05:47:40;99309.56;;;21.04;75.53
29215;BME280;16252;49.816;7.964;2023-07-29T05:50:06;99299.41;;;20.91;76.43
29215;BME280;16252;49.816;7.964;2023-07-29T05:52:32;99322.50;;;21.02;76.45
29215;BME280;16252;49.816;7.964;2023-07-29T05:54:58;99315.59;;;21.06;76.95
29215;BME280;16252;49.816;7.964;2023-07-29T05:57:23;99322.97;;;21.12;77.31
29215;BME280;16252;49.816;7.964;2023-07-29T05:59:48;99301.78;;;21.01;77.68
29215;BME280;16252;49.816;7.964;2023-07-29T06:02:14;99306.66;;;21.12;77.77
29215;BME280;16252;49.816;7.964;2023-07-29T06:04:39;99295.31;;;21.09;77.79
29215;BME280;16252;49.816;7.964;2023-07-29T06:07:05;99304.34;;;21.16;78.08
29215;BME280;16252;49.816;7.964;2023-07-29T06:09:30;99270.16;;;20.93;78.10
29215;BME280;16252;49.816;7.964;2023-07-29T06:11:56;99280.44;;;20.98;78.27
29215;BME280;16252;49.816;7.964;2023-07-29T06:14:21;99216.69;;;20.59;78.62
29215;BME280;16252;49.816;7.964;2023-07-29T06:16:46;99282.28;;;20.91;78.79
29215;BME280;16252;49.816;7.964;2023-07-29T06:19:11;99303.88;;;20.99;79.13
29215;BME280;16252;49.816;7.964;2023-07-29T06:21:38;99290.78;;;20.81;79.64
29215;BME280;16252;49.816;7.964;2023-07-29T06:24:03;99282.22;;;20.77;79.90
29215;BME280;16252;49.816;7.964;2023-07-29T06:26:29;99299.81;;;20.88;80.31
29215;BME280;16252;49.816;7.964;2023-07-29T06:28:54;99288.06;;;20.81;80.67
29215;BME280;16252;49.816;7.964;2023-07-29T06:31:19;99297.94;;;20.89;81.02
29215;BME280;16252;49.816;7.964;2023-07-29T06:33:45;99285.81;;;20.91;81.35
29215;BME280;16252;49.816;7.964;2023-07-29T06:36:11;99254.25;;;20.90;81.03
29215;BME280;16252;49.816;7.964;2023-07-29T06:38:37;99246.28;;;20.82;81.37
29215;BME280;16252;49.816;7.964;2023-07-29T06:41:04;99284.56;;;20.87;81.74
29215;BME280;16252;49.816;7.964;2023-07-29T06:43:29;99329.97;;;20.93;81.98
29215;BME280;16252;49.816;7.964;2023-07-29T06:45:54;99335.19;;;20.88;82.04
29215;BME280;16252;49.816;7.964;2023-07-29T06:48:20;99333.09;;;20.90;82.15
29215;BME280;16252;49.816;7.964;2023-07-29T06:50:46;99336.25;;;20.94;82.53
29215;BME280;16252;49.816;7.964;2023-07-29T06:53:11;99335.63;;;20.92;82.04
29215;BME280;16252;49.816;7.964;2023-07-29T06:55:37;99283.44;;;20.75;82.01
29215;BME280;16252;49.816;7.964;2023-07-29T06:58:02;99334.81;;;20.98;81.98
29215;BME280;16252;49.816;7.964;2023-07-29T07:00:27;99324.72;;;20.85;81.83
29215;BME280;16252;49.816;7.964;2023-07-29T07:02:53;99331.38;;;20.83;81.93
29215;BME280;16252;49.816;7.964;2023-07-29T07:05:18;99354.63;;;20.85;82.10
29215;BME280;16252;49.816;7.964;2023-07-29T07:07:44;99333.22;;;20.75;82.31
29215;BME280;16252;49.816;7.964;2023-07-29T07:10:09;99346.63;;;20.84;82.50
29215;BME280;16252;49.816;7.964;2023-07-29T07:12:34;99330.91;;;20.72;82.36
29215;BME280;16252;49.816;7.964;2023-07-29T07:15:00;99346.63;;;20.77;82.77
29215;BME280;16252;49.816;7.964;2023-07-29T07:17:26;99350.19;;;20.77;82.88
29215;BME280;16252;49.816;7.964;2023-07-29T07:19:51;99352.31;;;20.82;83.23
29215;BME280;16252;49.816;7.964;2023-07-29T07:22:16;99330.97;;;20.79;82.88
29215;BME280;16252;49.816;7.964;2023-07-29T07:24:42;99342.06;;;20.84;83.12
29215;BME280;16252;49.816;7.964;2023-07-29T07:27:07;99343.75;;;20.85;83.12
29215;BME280;16252;49.816;7.964;2023-07-29T07:29:32;99341.22;;;20.84;82.78
29215;BME280;16252;49.816;7.964;2023-07-29T07:31:58;99363.00;;;20.90;83.07
29215;BME280;16252;49.816;7.964;2023-07-29T07:34:23;99363.19;;;20.89;83.16
29215;BME280;16252;49.816;7.964;2023-07-29T07:36:49;99367.41;;;20.91;83.31
29215;BME280;16252;49.816;7.964;2023-07-29T07:39:14;99346.47;;;20.85;83.23
29215;BME280;16252;49.816;7.964;2023-07-29T07:41:40;99349.00;;;20.93;83.32
29215;BME280;16252;49.816;7.964;2023-07-29T07:44:06;99342.31;;;20.89;83.78
29215;BME280;16252;49.816;7.964;2023-07-29T07:46:31;99337.25;;;20.86;83.85
29215;BME280;16252;49.816;7.964;2023-07-29T07:48:56;99344.84;;;20.97;83.82
29215;BME280;16252;49.816;7.964;2023-07-29T07:51:22;99338.38;;;20.98;83.44
29215;BME280;16252;49.816;7.964;2023-07-29T07:53:48;99357.94;;;21.15;83.43
29215;BME280;16252;49.816;7.964;2023-07-29T07:56:13;99340.94;;;21.07;83.15
29215;BME280;16252;49.816;7.964;2023-07-29T07:58:40;99366.91;;;21.16;83.92
29215;BME280;16252;49.816;7.964;2023-07-29T08:01:06;99375.03;;;21.44;86.17
29215;BME280;16252;49.816;7.964;2023-07-29T08:03:32;99360.94;;;21.82;89.30
29215;BME280;16252;49.816;7.964;2023-07-29T08:05:58;99363.56;;;22.43;91.01
29215;BME280;16252;49.816;7.964;2023-07-29T08:08:23;99367.50;;;23.01;90.27
29215;BME280;16252;49.816;7.964;2023-07-29T08:10:49;99349.94;;;23.42;87.34
29215;BME280;16252;49.816;7.964;2023-07-29T08:13:14;99350.84;;;23.81;83.87
29215;BME280;16252;49.816;7.964;2023-07-29T08:15:39;99358.59;;;24.15;83.22
29215;BME280;16252;49.816;7.964;2023-07-29T08:18:06;99361.13;;;24.49;82.21
29215;BME280;16252;49.816;7.964;2023-07-29T08:20:31;99335.56;;;24.61;80.26
29215;BME280;16252;49.816;7.964;2023-07-29T08:22:57;99335.19;;;24.76;78.98
29215;BME280;16252;49.816;7.964;2023-07-29T08:25:23;99343.75;;;24.86;76.52
29215;BME280;16252;49.816;7.964;2023-07-29T08:27:48;99357.72;;;24.97;76.59
29215;BME280;16252;49.816;7.964;2023-07-29T08:30:13;99328.16;;;24.87;76.25
29215;BME280;16252;49.816;7.964;2023-07-29T08:32:40;99329.59;;;24.90;75.93
29215;BME280;16252;49.816;7.964;2023-07-29T08:35:06;99352.63;;;25.00;75.78
29215;BME280;16252;49.816;7.964;2023-07-29T08:37:31;99346.94;;;25.02;77.00
29215;BME280;16252;49.816;7.964;2023-07-29T08:39:57;99354.34;;;25.20;76.75
29215;BME280;16252;49.816;7.964;2023-07-29T08:42:23;99354.81;;;25.35;77.63
29215;BME280;16252;49.816;7.964;2023-07-29T08:44:51;99359.88;;;25.50;76.92
29215;BME280;16252;49.816;7.964;2023-07-29T08:47:19;99348.97;;;25.62;76.49
29215;BME280;16252;49.816;7.964;2023-07-29T08:49:45;99342.94;;;25.71;76.14
29215;BME280;16252;49.816;7.964;2023-07-29T08:52:11;99359.00;;;25.86;75.44
29215;BME280;16252;49.816;7.964;2023-07-29T08:54:37;99345.75;;;25.83;74.45
29215;BME280;16252;49.816;7.964;2023-07-29T08:57:02;99366.66;;;25.96;73.87
29215;BME280;16252;49.816;7.964;2023-07-29T08:59:28;99356.19;;;25.93;74.91
29215;BME280;16252;49.816;7.964;2023-07-29T09:01:54;99379.56;;;26.07;75.28
29215;BME280;16252;49.816;7.964;2023-07-29T09:04:23;99357.03;;;26.05;74.13
29215;BME280;16252;49.816;7.964;2023-07-29T09:06:50;99380.69;;;26.30;72.31
29215;BME280;16252;49.816;7.964;2023-07-29T09:09:15;99366.63;;;26.26;74.16
29215;BME280;16252;49.816;7.964;2023-07-29T09:11:40;99382.56;;;26.59;77.15
29215;BME280;16252;49.816;7.964;2023-07-29T09:14:06;99367.94;;;26.89;74.52
29215;BME280;16252;49.816;7.964;2023-07-29T09:16:32;99366.22;;;27.23;74.23
29215;BME280;16252;49.816;7.964;2023-07-29T09:19:01;99346.31;;;27.57;75.73
29215;BME280;16252;49.816;7.964;2023-07-29T09:21:26;99355.22;;;28.04;73.80
29215;BME280;16252;49.816;7.964;2023-07-29T09:23:53;99342.28;;;28.50;72.56
29215;BME280;16252;49.816;7.964;2023-07-29T09:26:23;99359.56;;;29.19;73.98
29215;BME280;16252;49.816;7.964;2023-07-29T09:28:52;99353.69;;;29.54;70.22
29215;BME280;16252;49.816;7.964;2023-07-29T09:31:20;99366.28;;;29.94;67.93
29215;BME280;16252;49.816;7.964;2023-07-29T09:33:45;99367.59;;;30.13;67.78
29215;BME280;16252;49.816;7.964;2023-07-29T09:36:11;99352.13;;;30.12;65.20
29215;BME280;16252;49.816;7.964;2023-07-29T09:38:37;99355.38;;;30.04;63.73
29215;BME280;16252;49.816;7.964;2023-07-29T09:41:02;99347.72;;;29.84;63.66
29215;BME280;16252;49.816;7.964;2023-07-29T09:43:34;99328.84;;;29.71;64.68
29215;BME280;16252;49.816;7.964;2023-07-29T09:46:01;99337.53;;;29.63;65.83
29215;BME280;16252;49.816;7.964;2023-07-29T09:48:26;99334.38;;;29.54;65.71
29215;BME280;16252;49.816;7.964;2023-07-29T09:50:53;99336.56;;;29.52;65.70
29215;BME280;16252;49.816;7.964;2023-07-29T09:53:19;99314.03;;;29.33;65.10
29215;BME280;16252;49.816;7.964;2023-07-29T09:55:48;99346.19;;;29.49;64.94
29215;BME280;16252;49.816;7.964;2023-07-29T09:58:19;99354.59;;;29.37;64.11
29215;BME280;16252;49.816;7.964;2023-07-29T10:00:45;99352.28;;;29.51;66.31
29215;BME280;16252;49.816;7.964;2023-07-29T10:03:11;99337.41;;;29.08;65.02
29215;BME280;16252;49.816;7.964;2023-07-29T10:05:36;99337.53;;;29.02;64.39
29215;BME280;16252;49.816;7.964;2023-07-29T10:08:04;99320.09;;;28.74;64.29
29215;BME280;16252;49.816;7.964;2023-07-29T10:10:29;99340.94;;;28.70;64.78
29215;BME280;16252;49.816;7.964;2023-07-29T10:12:56;99322.94;;;28.62;64.23
29215;BME280;16252;49.816;7.964;2023-07-29T10:15:22;99344.44;;;28.65;63.13
29215;BME280;16252;49.816;7.964;2023-07-29T10:17:48;99339.03;;;28.53;63.98
29215;BME280;16252;49.816;7.964;2023-07-29T10:20:15;99331.88;;;28.52;63.58
29215;BME280;16252;49.816;7.964;2023-07-29T10:22:41;99326.41;;;28.41;62.84
29215;BME280;16252;49.816;7.964;2023-07-29T10:25:10;99338.00;;;28.43;63.28
29215;BME280;16252;49.816;7.964;2023-07-29T10:27:57;99321.34;;;28.33;64.35
29215;BME280;16252;49.816;7.964;2023-07-29T10:30:24;99331.44;;;28.27;62.36
29215;BME280;16252;49.816;7.964;2023-07-29T10:32:51;99340.28;;;28.29;63.82
29215;BME280;16252;49.816;7.964;2023-07-29T10:35:18;99324.47;;;28.07;61.75
29215;BME280;16252;49.816;7.964;2023-07-29T10:37:43;99338.00;;;28.09;62.62
29215;BME280;16252;49.816;7.964;2023-07-29T10:40:11;99340.56;;;27.99;63.00
29215;BME280;16252;49.816;7.964;2023-07-29T10:42:37;99341.63;;;27.98;63.17
29215;BME280;16252;49.816;7.964;2023-07-29T10:45:21;99214.97;;;27.25;62.65
29215;BME280;16252;49.816;7.964;2023-07-29T10:47:47;99268.47;;;27.51;62.06
29215;BME280;16252;49.816;7.964;2023-07-29T10:50:18;99297.06;;;27.67;63.02
29215;BME280;16252;49.816;7.964;2023-07-29T10:52:49;99224.41;;;27.17;62.83
29215;BME280;16252;49.816;7.964;2023-07-29T10:55:26;99266.44;;;27.47;62.33
29215;BME280;16252;49.816;7.964;2023-07-29T10:57:52;99264.59;;;27.35;62.68
29215;BME280;16252;49.816;7.964;2023-07-29T11:00:20;99282.94;;;27.47;61.37
29215;BME280;16252;49.816;7.964;2023-07-29T11:03:08;99255.56;;;27.52;61.31
29215;BME280;16252;49.816;7.964;2023-07-29T11:05:51;99264.88;;;27.51;60.64
29215;BME280;16252;49.816;7.964;2023-07-29T11:08:17;99328.56;;;27.88;59.46
29215;BME280;16252;49.816;7.964;2023-07-29T11:10:43;99195.56;;;27.03;59.75
29215;BME280;16252;49.816;7.964;2023-07-29T11:13:11;99198.72;;;27.12;59.01
29215;BME280;16252;49.816;7.964;2023-07-29T11:15:38;99326.22;;;27.97;58.00
29215;BME280;16252;49.816;7.964;2023-07-29T11:18:04;99277.91;;;27.72;57.51
29215;BME280;16252;49.816;7.964;2023-07-29T11:20:33;99267.50;;;27.74;57.58
29215;BME280;16252;49.816;7.964;2023-07-29T11:23:00;99251.84;;;27.58;60.99
29215;BME280;16252;49.816;7.964;2023-07-29T11:25:27;99262.75;;;27.70;57.26
29215;BME280;16252;49.816;7.964;2023-07-29T11:27:55;99313.47;;;28.07;56.20
29215;BME280;16252;49.816;7.964;2023-07-29T11:30:21;99333.00;;;28.06;55.38
29215;BME280;16252;49.816;7.964;2023-07-29T11:32:47;99239.44;;;27.55;55.48
29215;BME280;16252;49.816;7.964;2023-07-29T11:35:15;99284.81;;;27.86;55.22
29215;BME280;16252;49.816;7.964;2023-07-29T11:37:42;99301.16;;;27.93;56.75
29215;BME280;16252;49.816;7.964;2023-07-29T11:40:08;99245.59;;;27.62;56.21
29215;BME280;16252;49.816;7.964;2023-07-29T11:42:37;99264.81;;;27.62;55.40
29215;BME280;16252;49.816;7.964;2023-07-29T11:45:03;99315.22;;;27.97;56.56
29215;BME280;16252;49.816;7.964;2023-07-29T11:47:31;99236.22;;;27.47;53.59
29215;BME280;16252;49.816;7.964;2023-07-29T11:50:00;99200.97;;;27.27;55.79
29215;BME280;16252;49.816;7.964;2023-07-29T11:52:25;99242.19;;;27.55;53.80
29215;BME280;16252;49.816;7.964;2023-07-29T11:54:52;99271.00;;;27.70;54.71
29215;BME280;16252;49.816;7.964;2023-07-29T11:57:18;99283.97;;;27.86;53.78
29215;BME280;16252;49.816;7.964;2023-07-29T11:59:43;99300.06;;;27.94;53.84
29215;BME280;16252;49.816;7.964;2023-07-29T12:02:16;99207.34;;;27.44;54.31
29215;BME280;16252;49.816;7.964;2023-07-29T12:04:43;99206.56;;;27.32;54.55
29215;BME280;16252;49.816;7.964;2023-07-29T12:07:09;99277.91;;;27.72;53.97
29215;BME280;16252;49.816;7.964;2023-07-29T12:09:35;99311.00;;;28.06;56.18
29215;BME280;16252;49.816;7.964;2023-07-29T12:12:03;99304.00;;;27.98;56.37
29215;BME280;16252;49.816;7.964;2023-07-29T12:14:29;99254.78;;;27.68;54.78
29215;BME280;16252;49.816;7.964;2023-07-29T12:16:54;99296.31;;;28.00;54.06
29215;BME280;16252;49.816;7.964;2023-07-29T12:19:19;99233.75;;;27.62;55.32
29215;BME280;16252;49.816;7.964;2023-07-29T12:21:47;99294.16;;;28.02;55.09
29215;BME280;16252;49.816;7.964;2023-07-29T12:24:13;99178.63;;;27.35;53.72
29215;BME280;16252;49.816;7.964;2023-07-29T12:26:40;99288.75;;;28.07;52.80
29215;BME280;16252;49.816;7.964;2023-07-29T12:29:16;99253.47;;;27.87;54.19
29215;BME280;16252;49.816;7.964;2023-07-29T12:31:42;99234.81;;;27.73;52.77
29215;BME280;16252;49.816;7.964;2023-07-29T12:34:07;99289.00;;;28.06;53.20
29215;BME280;16252;49.816;7.964;2023-07-29T12:36:43;99249.41;;;27.90;52.62
29215;BME280;16252;49.816;7.964;2023-07-29T12:39:22;99312.75;;;28.29;54.04
29215;BME280;16252;49.816;7.964;2023-07-29T12:41:49;99237.25;;;27.86;52.14
29215;BME280;16252;49.816;7.964;2023-07-29T12:44:14;99257.00;;;27.83;53.17
29215;BME280;16252;49.816;7.964;2023-07-29T12:46:40;99262.66;;;27.93;52.69
29215;BME280;16252;49.816;7.964;2023-07-29T12:49:05;99276.81;;;28.02;53.30
29215;BME280;16252;49.816;7.964;2023-07-29T12:51:31;99296.41;;;28.22;56.05
29215;BME280;16252;49.816;7.964;2023-07-29T12:53:57;99279.91;;;28.05;52.58
29215;BME280;16252;49.816;7.964;2023-07-29T12:56:22;99252.56;;;27.82;53.28
29215;BME280;16252;49.816;7.964;2023-07-29T12:58:47;99166.06;;;27.39;55.23
29215;BME280;16252;49.816;7.964;2023-07-29T13:01:13;99230.81;;;27.80;52.44
29215;BME280;16252;49.816;7.964;2023-07-29T13:03:42;99284.50;;;28.17;53.36